METAR AND TAF INFORMATION

METAR FOR SOCA
ADDS - METARS form results

(0731 UTC 29 September 2022)
Data provider http://aviationweather.gov/metar/data/
 
METAR text: SOCA 290730Z AUTO 00000KT 7000 NSC 23/22 Q1010
Conditions at: SOCA (CAYENNE/ROCHAMBE, GF) observed 0730 UTC 29 September 2022
Temperature: 23.0°C (73°F)
Dewpoint: 22.0°C (72°F) [RH = 94%]
Pressure (altimeter): 29.82 inches Hg (1010.0 mb)
Winds: calm
Visibility: 4 miles ( 7 km)
Ceiling: at least 12,000 feet AGL
Clouds: sky clear below 12,000 feet AGL
Weather: no significant weather observed at this time

METAR text: SOCA 290700Z AUTO 00000KT 6000 NSC 22/22 Q1010
Conditions at: SOCA (CAYENNE/ROCHAMBE, GF) observed 0700 UTC 29 September 2022
Temperature: 22.0°C (72°F)
Dewpoint: 22.0°C (72°F) [RH = 100%]
Pressure (altimeter): 29.82 inches Hg (1010.0 mb)
Winds: calm
Visibility: 4 miles ( 6 km)
Ceiling: at least 12,000 feet AGL
Clouds: sky clear below 12,000 feet AGL
Weather: no significant weather observed at this time

 

AIRPORT MAP

 

RUNWAY INFORMATION

Runway 08 Runway length 10486 ft Runway width 148 ft
Runway elevation 18 ft Runway displaced threshold 0 ft Runway heading 65
Runway 26 Runway length 10486 ft Runway width 148 ft
Runway elevation 25 ft Runway displaced threshold 0 ft Runway heading 245

 

AIRPORT FREQUENCIES

Type APP Name APP Frequency 119.9 MHZ
Type ATIS Name ATIS Frequency 132.2 MHZ
Type TWR Name TWR Frequency 118.1 MHZ

 

AIRPORT NEAR NAVIGATION AIDS

Type VOR-DME Name Cayenne Frequency 115950 KHZ
Type NDB Name Cayenne Frequency 327 KHZ